Sulphur Genesis — 9HA2898 — position and weather

sailwx.info

Track history (hours):
 
Tides and Currents Weather Stations Pressure Air Temp Water Temp Dewpoint Dewpoint Depression Visibility Wind Speed Wind Dir Waves Ship Positions

Sulphur Genesis

Last reported at 2018-May-26 06:09 UTC. Time now 2018-May-26 14:09 UTC.
Position N 56°01' E 012°43'.

Length 95 m; draft 7.4 m.

Type: Tanker. MMSI: 256656000.

Date/timePositionNaut miles runAvg speedWind from/ knotsBaromVisibWave heightAir tempDewpointWater temp
2018-May-26 06:09N 56°01' E 012°43'0 0.2
2018-May-26 05:31N 56°00' E 012°43'2 4.1
2018-May-26 05:00N 55°58' E 012°44'0 0.2
2018-May-26 04:29N 55°59' E 012°44'0 0.0
2018-May-26 03:59N 55°59' E 012°44'0 0.0
2018-May-26 03:29N 55°59' E 012°44'0 0.0
2018-May-26 02:59N 55°59' E 012°44'0 0.0
2018-May-26 02:29N 55°59' E 012°44'0 0.0
2018-May-26 01:59N 55°59' E 012°44'0 0.0
2018-May-26 01:29N 55°59' E 012°44'0 0.0
2018-May-26 00:59N 55°59' E 012°44'0 0.0
2018-May-26 00:29N 55°59' E 012°44'0 0.0
2018-May-25 23:59N 55°59' E 012°44'0 0.0
2018-May-25 23:29N 55°59' E 012°44'0 0.0
2018-May-25 22:59N 55°59' E 012°44'0 0.0
2018-May-25 22:29N 55°59' E 012°44'0 0.0
2018-May-25 21:59N 55°59' E 012°44'0 0.0
2018-May-25 21:29N 55°59' E 012°44'0 0.0
2018-May-25 20:59N 55°59' E 012°44'0 0.0
2018-May-25 20:29N 55°59' E 012°44'0 0.6
2018-May-25 20:00N 55°59' E 012°43'3 7.0
2018-May-25 19:30N 56°01' E 012°40'510.1
2018-May-25 19:00N 56°06' E 012°34'710.5
2018-May-25 18:21N 56°10' E 012°25'412.3
2018-May-25 18:00N 56°12' E 012°18'3612.2
2018-May-25 15:02N 56°45' E 011°52'113.3
2018-May-25 15:00N 56°46' E 011°52'713.3
2018-May-25 14:28N 56°52' E 011°47'613.3
2018-May-25 14:00N 56°58' E 011°43'712.9
2018-May-25 13:30N 57°04' E 011°39'612.9
2018-May-25 13:00N 57°10' E 011°35'712.8
2018-May-25 12:30N 57°16' E 011°32'612.4
2018-May-25 11:59N 57°22' E 011°27'612.0
2018-May-25 11:30N 57°28' E 011°24'612.0
2018-May-25 11:00N 57°34' E 011°22'612.7
2018-May-25 10:30N 57°40' E 011°20'612.4
2018-May-25 10:00N 57°46' E 011°19'612.3
2018-May-25 09:30N 57°52' E 011°18'612.1
2018-May-25 09:00N 57°58' E 011°17'612.0
2018-May-25 08:29N 58°04' E 011°15'612.1
2018-May-25 08:00N 58°10' E 011°15'612.0
2018-May-25 07:30N 58°16' E 011°16'611.6
2018-May-25 07:00N 58°20' E 011°23'2 0.2
2018-May-24 20:27N 58°21' E 011°26'1 2.1
2018-May-24 20:00N 58°21' E 011°24'612.8
2018-May-24 19:30N 58°16' E 011°16'611.3
2018-May-24 19:00N 58°11' E 011°13'714.3
2018-May-24 18:30N 58°04' E 011°15'714.2
2018-May-24 18:00N 57°57' E 011°17'714.0
2018-May-24 17:31N 57°50' E 011°19'713.8
2018-May-24 17:00N 57°43' E 011°22'713.4
2018-May-24 16:31N 57°37' E 011°24'713.3
2018-May-24 16:01N 57°30' E 011°26'713.5
2018-May-24 15:31N 57°24' E 011°29'713.7
2018-May-24 15:00N 57°17' E 011°33'713.3
2018-May-24 14:30N 57°11' E 011°37'7213.0
2018-May-24 08:58N 56°06' E 012°35'714.7
2018-May-24 08:30N 56°00' E 012°41'1 0.1
2018-May-23 19:48N 56°01' E 012°43'0 0.7
2018-May-23 19:30N 56°00' E 012°43'2 3.7
2018-May-23 19:01N 55°59' E 012°41'611.3
2018-May-23 18:30N 56°04' E 012°37'5811.5
2018-May-23 13:26N 56°55' E 011°45'913.1
2018-May-23 12:44N 57°03' E 011°40'313.0
2018-May-23 12:30N 57°06' E 011°37'613.1
2018-May-23 12:00N 57°13' E 011°34'613.0
2018-May-23 11:30N 57°19' E 011°30'612.4
2018-May-23 10:59N 57°25' E 011°26'611.9
2018-May-23 10:30N 57°30' E 011°23'612.1
2018-May-23 10:00N 57°36' E 011°22'612.2
2018-May-23 09:30N 57°42' E 011°20'612.2
2018-May-23 09:00N 57°48' E 011°19'612.0
2018-May-23 08:30N 57°54' E 011°17'612.0
2018-May-23 08:00N 58°00' E 011°15'611.9
2018-May-23 07:30N 58°06' E 011°13'611.8
2018-May-23 07:00N 58°12' E 011°12'611.4
2018-May-23 06:31N 58°17' E 011°17'611.3
2018-May-23 05:58N 58°21' E 011°25'1 0.0
2018-May-22 16:48N 58°21' E 011°26'0 1.6
2018-May-22 16:29N 58°22' E 011°25'2 4.4
2018-May-22 16:00N 58°20' E 011°23'0 0.1
2018-May-22 15:26N 58°20' E 011°24'0 0.0
2018-May-22 14:59N 58°20' E 011°24'0 0.1
2018-May-22 14:30N 58°20' E 011°24'0 0.0
2018-May-22 14:00N 58°20' E 011°24'0 0.0
2018-May-22 13:29N 58°20' E 011°24'0 0.0
2018-May-22 12:59N 58°20' E 011°24'0 0.0
2018-May-22 12:29N 58°20' E 011°24'0 0.0
2018-May-22 11:59N 58°20' E 011°24'0 0.0
2018-May-22 11:29N 58°20' E 011°24'0 0.0
2018-May-22 10:47N 58°20' E 011°24'0 0.0
2018-May-22 10:17N 58°20' E 011°24'0 0.0
2018-May-22 09:59N 58°20' E 011°24'0 0.0
2018-May-22 09:29N 58°20' E 011°24'0 0.0
2018-May-22 08:53N 58°20' E 011°24'0 0.0
2018-May-22 08:23N 58°20' E 011°24'0 0.1
2018-May-22 07:59N 58°20' E 011°24'0 0.1
2018-May-22 07:29N 58°20' E 011°23'0 0.0
2018-May-22 06:59N 58°20' E 011°23'0 0.1
2018-May-22 06:29N 58°20' E 011°23'0 0.0
2018-May-22 05:59N 58°20' E 011°23'0 0.0
2018-May-22 05:29N 58°20' E 011°23'0 0.0
2018-May-22 04:59N 58°20' E 011°23'0 0.0
2018-May-22 04:29N 58°20' E 011°23'0 0.0
2018-May-22 03:59N 58°20' E 011°23'0 0.1
2018-May-22 03:23N 58°20' E 011°23'0 0.0
2018-May-22 02:59N 58°20' E 011°23'0 0.0
2018-May-22 02:29N 58°20' E 011°23'0 0.0
2018-May-22 01:59N 58°20' E 011°23'0 0.0
2018-May-22 01:23N 58°20' E 011°23'0 0.0
2018-May-22 00:59N 58°20' E 011°23'0 0.0
2018-May-22 00:29N 58°20' E 011°23'0 0.0
2018-May-21 23:53N 58°20' E 011°23'0 0.0
2018-May-21 23:29N 58°20' E 011°23'0 0.0
2018-May-21 22:59N 58°20' E 011°23'0 0.0
2018-May-21 22:29N 58°20' E 011°23'0 0.0
2018-May-21 21:59N 58°20' E 011°23'0 0.0
2018-May-21 21:29N 58°20' E 011°23'0 0.0
2018-May-21 20:59N 58°20' E 011°23'0 0.1
2018-May-21 20:29N 58°20' E 011°23'0 0.0
2018-May-21 19:59N 58°20' E 011°24'0 0.0
2018-May-21 19:29N 58°20' E 011°24'0 0.0
2018-May-21 18:59N 58°20' E 011°24'0 0.0
2018-May-21 18:29N 58°20' E 011°24'0 0.0
2018-May-21 17:59N 58°20' E 011°24'0 0.0
2018-May-21 17:29N 58°20' E 011°24'0 0.0
2018-May-21 16:59N 58°20' E 011°24'0 0.0
2018-May-21 16:29N 58°20' E 011°23'0 0.0
2018-May-21 15:59N 58°20' E 011°24'0 0.0
2018-May-21 15:29N 58°20' E 011°24'0 0.0
2018-May-21 14:59N 58°20' E 011°24'0 0.0
2018-May-21 14:29N 58°20' E 011°24'0 0.0
2018-May-21 13:59N 58°20' E 011°24'0 0.0
2018-May-21 13:29N 58°20' E 011°24'0 0.0
2018-May-21 12:59N 58°20' E 011°24'0 0.0
2018-May-21 12:29N 58°20' E 011°24'0 0.0
2018-May-21 11:59N 58°20' E 011°24'0 0.0
2018-May-21 11:29N 58°20' E 011°24'0 0.0
2018-May-21 10:59N 58°20' E 011°24'0 0.0
2018-May-21 10:29N 58°20' E 011°24'0 0.0
2018-May-21 09:56N 58°20' E 011°23'0 0.0
2018-May-21 09:29N 58°20' E 011°23'1 2.8
2018-May-21 09:00N 58°19' E 011°21'713.2
2018-May-21 08:31N 58°14' E 011°12'714.2
2018-May-21 08:01N 58°07' E 011°14'714.5
2018-May-21 07:30N 58°00' E 011°16'714.3
2018-May-21 07:01N 57°53' E 011°18'714.3
2018-May-21 06:30N 57°46' E 011°21'714.8
2018-May-21 06:00N 57°39' E 011°23'714.8
2018-May-21 05:31N 57°32' E 011°25'714.8
2018-May-21 05:01N 57°24' E 011°29'714.6
2018-May-21 04:30N 57°17' E 011°33'714.4
2018-May-21 04:01N 57°11' E 011°38'814.7
2018-May-21 03:28N 57°03' E 011°43'714.7
2018-May-21 03:00N 56°57' E 011°47'714.4
2018-May-21 02:29N 56°50' E 011°51'714.0
2018-May-21 02:00N 56°43' E 011°55'713.6
2018-May-21 01:29N 56°36' E 011°58'2912.8
2018-May-20 23:16N 56°11' E 012°22'414.2
2018-May-20 23:01N 56°09' E 012°28'815.8
2018-May-20 22:30N 56°04' E 012°38'4 9.0
2018-May-20 22:00N 56°00' E 012°43'0 0.0
2018-May-20 11:50N 56°01' E 012°43'0 0.7
2018-May-20 11:31N 56°00' E 012°43'1 2.5
2018-May-20 11:00N 55°60' E 012°41'510.3
2018-May-20 10:30N 56°04' E 012°37'510.8
2018-May-20 10:00N 56°08' E 012°29'611.0
2018-May-20 09:30N 56°11' E 012°21'510.9
2018-May-20 09:00N 56°14' E 012°13'712.5
2018-May-20 08:29N 56°18' E 012°04'2912.3
2018-May-20 06:08N 56°46' E 011°52'612.0
2018-May-20 05:40N 56°51' E 011°48'2211.9
2018-May-20 03:49N 57°12' E 011°34'411.5
2018-May-20 03:29N 57°15' E 011°32'611.5
2018-May-20 03:00N 57°21' E 011°28'611.5
2018-May-20 02:30N 57°26' E 011°25'611.2
2018-May-20 02:00N 57°30' E 011°18'611.3
2018-May-20 01:30N 57°34' E 011°10'611.2
2018-May-20 01:00N 57°38' E 011°02'611.4
2018-May-20 00:30N 57°42' E 010°55'611.6
2018-May-20 00:00N 57°46' E 010°47'611.9
2018-May-19 23:30N 57°50' E 010°38'612.2
2018-May-19 23:00N 57°51' E 010°27'612.5
2018-May-19 22:30N 57°51' E 010°15'612.4
2018-May-19 21:59N 57°51' E 010°03'612.1
2018-May-19 21:30N 57°50' E 009°52'612.0
2018-May-19 20:59N 57°47' E 009°43'612.3
2018-May-19 20:30N 57°43' E 009°34'612.2
2018-May-19 20:00N 57°39' E 009°26'612.2
2018-May-19 19:30N 57°35' E 009°17'612.3
2018-May-19 19:00N 57°31' E 009°09'612.3
2018-May-19 18:30N 57°27' E 008°60'2112.4
2018-May-19 16:47N 57°13' E 008°30'612.2
2018-May-19 16:15N 57°08' E 008°23'312.1
2018-May-19 15:59N 57°05' E 008°19'611.9
2018-May-19 15:30N 57°01' E 008°12'611.9
2018-May-19 15:00N 56°56' E 008°05'711.5
2018-May-19 14:23N 56°50' E 007°60'511.7
2018-May-19 14:00N 56°46' E 007°57'7111.9
2018-May-19 08:05N 55°39' E 007°17'112.9
2018-May-19 08:00N 55°38' E 007°16'612.7
2018-May-19 07:29N 55°32' E 007°12'612.6
2018-May-19 07:00N 55°26' E 007°09'612.5
2018-May-19 06:30N 55°20' E 007°05'612.3
2018-May-19 06:00N 55°14' E 007°03'612.7
2018-May-19 05:30N 55°08' E 007°03'612.6
2018-May-19 05:00N 55°01' E 007°04'612.8
2018-May-19 04:30N 54°55' E 007°07'712.8
2018-May-19 04:00N 54°49' E 007°10'712.8
2018-May-19 03:28N 54°42' E 007°13'6810.3
2018-May-18 20:53N 53°44' E 008°14'512.4
2018-May-18 20:30N 53°42' E 008°21'713.6
2018-May-18 20:01N 53°37' E 008°29'612.9
2018-May-18 19:30N 53°31' E 008°33'612.5
2018-May-18 19:00N 53°25' E 008°30'5 9.6
2018-May-18 18:30N 53°21' E 008°30'0 0.0
2018-May-18 03:09N 53°21' E 008°30'0 0.1
2018-May-18 03:00N 53°21' E 008°30'1 2.3
2018-May-18 02:30N 53°22' E 008°30'612.0
2018-May-18 02:00N 53°28' E 008°29'510.3
2018-May-18 01:31N 53°32' E 008°34'612.7
2018-May-18 01:00N 53°37' E 008°28'714.0
2018-May-18 00:30N 53°42' E 008°19'106 8.4
2018-May-17 11:58N 53°33' E 005°22'4 9.0
2018-May-17 11:29N 53°31' E 005°15'4 9.2
2018-May-17 11:00N 53°30' E 005°08'5 9.4
2018-May-17 10:30N 53°28' E 005°01'5 9.1
2018-May-17 10:01N 53°27' E 004°53'5 9.8
2018-May-17 09:30N 53°25' E 004°46'15 7.9
2018-May-17 07:36N 53°12' E 004°33'1 8.1
2018-May-17 07:25N 53°10' E 004°32'4 8.8
2018-May-17 06:59N 53°07' E 004°29'5 8.7
2018-May-17 06:27N 53°03' E 004°24'4 8.7
2018-May-17 06:00N 52°60' E 004°21'5 8.7
2018-May-17 05:27N 52°55' E 004°18'6 9.0
2018-May-17 04:44N 52°50' E 004°13'6 9.3
2018-May-17 04:09N 52°45' E 004°08'9 9.4
2018-May-17 03:14N 52°38' E 004°01'3 9.6
2018-May-17 02:55N 52°35' E 003°59'4 9.2
2018-May-17 02:30N 52°32' E 003°55'4 8.3
2018-May-17 01:59N 52°28' E 003°54'4 7.9
2018-May-17 01:30N 52°24' E 003°53'4 7.4
2018-May-17 01:00N 52°20' E 003°52'4 7.3
2018-May-17 00:30N 52°17' E 003°52'4 7.3
2018-May-17 00:00N 52°13' E 003°53'3 6.9
2018-May-16 23:30N 52°10' E 003°54'3 6.9
2018-May-16 23:00N 52°06' E 003°55'4 7.2
2018-May-16 22:30N 52°03' E 003°58'5 9.1
2018-May-16 22:01N 51°60' E 004°03'4 8.3
2018-May-16 21:30N 51°57' E 004°09'3 6.6
2018-May-16 21:00N 51°55' E 004°13'1 0.8
2018-May-16 20:20N 51°55' E 004°13'0 0.0
2018-May-16 19:59N 51°55' E 004°13'0 0.0
2018-May-16 19:26N 51°55' E 004°13'0 0.0
2018-May-16 18:59N 51°55' E 004°13'0 0.0
2018-May-16 18:29N 51°55' E 004°13'0 0.0
2018-May-16 17:59N 51°55' E 004°13'0 0.0
2018-May-16 17:29N 51°55' E 004°13'0 0.0
2018-May-16 16:59N 51°55' E 004°13'0 0.0
2018-May-16 16:29N 51°55' E 004°13'0 0.0
2018-May-16 15:59N 51°55' E 004°13'0 0.0
2018-May-16 15:29N 51°55' E 004°13'0 0.0
2018-May-16 14:59N 51°55' E 004°13'0 0.0
2018-May-16 14:29N 51°55' E 004°13'0 0.0
2018-May-16 13:59N 51°55' E 004°13'0 0.0
2018-May-16 13:29N 51°55' E 004°13'0 0.0
2018-May-16 12:56N 51°55' E 004°13'0 0.0
2018-May-16 12:26N 51°55' E 004°13'0 0.0
2018-May-16 11:59N 51°55' E 004°13'0 0.0
2018-May-16 11:29N 51°55' E 004°13'0 0.0
2018-May-16 10:53N 51°55' E 004°13'0 0.0
2018-May-16 10:29N 51°55' E 004°13'0 0.0
2018-May-16 09:59N 51°55' E 004°13'0 0.0
2018-May-16 09:26N 51°55' E 004°13'0 0.0
2018-May-16 08:59N 51°55' E 004°13'0 0.0
2018-May-16 08:29N 51°55' E 004°13'0 0.0
2018-May-16 07:53N 51°55' E 004°13'0 0.0
2018-May-16 07:29N 51°55' E 004°13'0 0.0
2018-May-16 07:00N 51°55' E 004°13'1 1.5
2018-May-16 06:30N 51°55' E 004°12'  
Track history (hours):
 
Tides and Currents Weather Stations Pressure Air Temp Water Temp Dewpoint Dewpoint Depression Visibility Wind Speed Wind Dir Waves Ship Positions

Sulphur Genesis

Last reported at 2018-May-26 06:09 UTC. Time now 2018-May-26 14:09 UTC.
Position N 56°01' E 012°43'.

Length 95 m; draft 7.4 m.

Type: Tanker. MMSI: 256656000.

Date/timePositionNaut miles runAvg speedWind from/ knotsBaromVisibWave heightAir tempDewpointWater temp
2018-May-26 06:09N 56°01' E 012°43'0 0.2
2018-May-26 05:31N 56°00' E 012°43'2 4.1
2018-May-26 05:00N 55°58' E 012°44'0 0.2
2018-May-26 04:29N 55°59' E 012°44'0 0.0
2018-May-26 03:59N 55°59' E 012°44'0 0.0
2018-May-26 03:29N 55°59' E 012°44'0 0.0
2018-May-26 02:59N 55°59' E 012°44'0 0.0
2018-May-26 02:29N 55°59' E 012°44'0 0.0
2018-May-26 01:59N 55°59' E 012°44'0 0.0
2018-May-26 01:29N 55°59' E 012°44'0 0.0
2018-May-26 00:59N 55°59' E 012°44'0 0.0
2018-May-26 00:29N 55°59' E 012°44'0 0.0
2018-May-25 23:59N 55°59' E 012°44'0 0.0
2018-May-25 23:29N 55°59' E 012°44'0 0.0
2018-May-25 22:59N 55°59' E 012°44'0 0.0
2018-May-25 22:29N 55°59' E 012°44'0 0.0
2018-May-25 21:59N 55°59' E 012°44'0 0.0
2018-May-25 21:29N 55°59' E 012°44'0 0.0
2018-May-25 20:59N 55°59' E 012°44'0 0.0
2018-May-25 20:29N 55°59' E 012°44'0 0.6
2018-May-25 20:00N 55°59' E 012°43'3 7.0
2018-May-25 19:30N 56°01' E 012°40'510.1
2018-May-25 19:00N 56°06' E 012°34'710.5
2018-May-25 18:21N 56°10' E 012°25'412.3
2018-May-25 18:00N 56°12' E 012°18'3612.2
2018-May-25 15:02N 56°45' E 011°52'113.3
2018-May-25 15:00N 56°46' E 011°52'713.3
2018-May-25 14:28N 56°52' E 011°47'613.3
2018-May-25 14:00N 56°58' E 011°43'712.9
2018-May-25 13:30N 57°04' E 011°39'612.9
2018-May-25 13:00N 57°10' E 011°35'712.8
2018-May-25 12:30N 57°16' E 011°32'612.4
2018-May-25 11:59N 57°22' E 011°27'612.0
2018-May-25 11:30N 57°28' E 011°24'612.0
2018-May-25 11:00N 57°34' E 011°22'612.7
2018-May-25 10:30N 57°40' E 011°20'612.4
2018-May-25 10:00N 57°46' E 011°19'612.3
2018-May-25 09:30N 57°52' E 011°18'612.1
2018-May-25 09:00N 57°58' E 011°17'612.0
2018-May-25 08:29N 58°04' E 011°15'612.1
2018-May-25 08:00N 58°10' E 011°15'612.0
2018-May-25 07:30N 58°16' E 011°16'611.6
2018-May-25 07:00N 58°20' E 011°23'2 0.2
2018-May-24 20:27N 58°21' E 011°26'1 2.1
2018-May-24 20:00N 58°21' E 011°24'612.8
2018-May-24 19:30N 58°16' E 011°16'611.3
2018-May-24 19:00N 58°11' E 011°13'714.3
2018-May-24 18:30N 58°04' E 011°15'714.2
2018-May-24 18:00N 57°57' E 011°17'714.0
2018-May-24 17:31N 57°50' E 011°19'713.8
2018-May-24 17:00N 57°43' E 011°22'713.4
2018-May-24 16:31N 57°37' E 011°24'713.3
2018-May-24 16:01N 57°30' E 011°26'713.5
2018-May-24 15:31N 57°24' E 011°29'713.7
2018-May-24 15:00N 57°17' E 011°33'713.3
2018-May-24 14:30N 57°11' E 011°37'7213.0
2018-May-24 08:58N 56°06' E 012°35'714.7
2018-May-24 08:30N 56°00' E 012°41'1 0.1
2018-May-23 19:48N 56°01' E 012°43'0 0.7
2018-May-23 19:30N 56°00' E 012°43'2 3.7
2018-May-23 19:01N 55°59' E 012°41'611.3
2018-May-23 18:30N 56°04' E 012°37'5811.5
2018-May-23 13:26N 56°55' E 011°45'913.1
2018-May-23 12:44N 57°03' E 011°40'313.0
2018-May-23 12:30N 57°06' E 011°37'613.1
2018-May-23 12:00N 57°13' E 011°34'613.0
2018-May-23 11:30N 57°19' E 011°30'612.4
2018-May-23 10:59N 57°25' E 011°26'611.9
2018-May-23 10:30N 57°30' E 011°23'612.1
2018-May-23 10:00N 57°36' E 011°22'612.2
2018-May-23 09:30N 57°42' E 011°20'612.2
2018-May-23 09:00N 57°48' E 011°19'612.0
2018-May-23 08:30N 57°54' E 011°17'612.0
2018-May-23 08:00N 58°00' E 011°15'611.9
2018-May-23 07:30N 58°06' E 011°13'611.8
2018-May-23 07:00N 58°12' E 011°12'611.4
2018-May-23 06:31N 58°17' E 011°17'611.3
2018-May-23 05:58N 58°21' E 011°25'1 0.0
2018-May-22 16:48N 58°21' E 011°26'0 1.6
2018-May-22 16:29N 58°22' E 011°25'2 4.4
2018-May-22 16:00N 58°20' E 011°23'0 0.1
2018-May-22 15:26N 58°20' E 011°24'0 0.0
2018-May-22 14:59N 58°20' E 011°24'0 0.1
2018-May-22 14:30N 58°20' E 011°24'0 0.0
2018-May-22 14:00N 58°20' E 011°24'0 0.0
2018-May-22 13:29N 58°20' E 011°24'0 0.0
2018-May-22 12:59N 58°20' E 011°24'0 0.0
2018-May-22 12:29N 58°20' E 011°24'0 0.0
2018-May-22 11:59N 58°20' E 011°24'0 0.0
2018-May-22 11:29N 58°20' E 011°24'0 0.0
2018-May-22 10:47N 58°20' E 011°24'0 0.0
2018-May-22 10:17N 58°20' E 011°24'0 0.0
2018-May-22 09:59N 58°20' E 011°24'0 0.0
2018-May-22 09:29N 58°20' E 011°24'0 0.0
2018-May-22 08:53N 58°20' E 011°24'0 0.0
2018-May-22 08:23N 58°20' E 011°24'0 0.1
2018-May-22 07:59N 58°20' E 011°24'0 0.1
2018-May-22 07:29N 58°20' E 011°23'0 0.0
2018-May-22 06:59N 58°20' E 011°23'0 0.1
2018-May-22 06:29N 58°20' E 011°23'0 0.0
2018-May-22 05:59N 58°20' E 011°23'0 0.0
2018-May-22 05:29N 58°20' E 011°23'0 0.0
2018-May-22 04:59N 58°20' E 011°23'0 0.0
2018-May-22 04:29N 58°20' E 011°23'0 0.0
2018-May-22 03:59N 58°20' E 011°23'0 0.1
2018-May-22 03:23N 58°20' E 011°23'0 0.0
2018-May-22 02:59N 58°20' E 011°23'0 0.0
2018-May-22 02:29N 58°20' E 011°23'0 0.0
2018-May-22 01:59N 58°20' E 011°23'0 0.0
2018-May-22 01:23N 58°20' E 011°23'0 0.0
2018-May-22 00:59N 58°20' E 011°23'0 0.0
2018-May-22 00:29N 58°20' E 011°23'0 0.0
2018-May-21 23:53N 58°20' E 011°23'0 0.0
2018-May-21 23:29N 58°20' E 011°23'0 0.0
2018-May-21 22:59N 58°20' E 011°23'0 0.0
2018-May-21 22:29N 58°20' E 011°23'0 0.0
2018-May-21 21:59N 58°20' E 011°23'0 0.0
2018-May-21 21:29N 58°20' E 011°23'0 0.0
2018-May-21 20:59N 58°20' E 011°23'0 0.1
2018-May-21 20:29N 58°20' E 011°23'0 0.0
2018-May-21 19:59N 58°20' E 011°24'0 0.0
2018-May-21 19:29N 58°20' E 011°24'0 0.0
2018-May-21 18:59N 58°20' E 011°24'0 0.0
2018-May-21 18:29N 58°20' E 011°24'0 0.0
2018-May-21 17:59N 58°20' E 011°24'0 0.0
2018-May-21 17:29N 58°20' E 011°24'0 0.0
2018-May-21 16:59N 58°20' E 011°24'0 0.0
2018-May-21 16:29N 58°20' E 011°23'0 0.0
2018-May-21 15:59N 58°20' E 011°24'0 0.0
2018-May-21 15:29N 58°20' E 011°24'0 0.0
2018-May-21 14:59N 58°20' E 011°24'0 0.0
2018-May-21 14:29N 58°20' E 011°24'0 0.0
2018-May-21 13:59N 58°20' E 011°24'0 0.0
2018-May-21 13:29N 58°20' E 011°24'0 0.0
2018-May-21 12:59N 58°20' E 011°24'0 0.0
2018-May-21 12:29N 58°20' E 011°24'0 0.0
2018-May-21 11:59N 58°20' E 011°24'0 0.0
2018-May-21 11:29N 58°20' E 011°24'0 0.0
2018-May-21 10:59N 58°20' E 011°24'0 0.0
2018-May-21 10:29N 58°20' E 011°24'0 0.0
2018-May-21 09:56N 58°20' E 011°23'0 0.0
2018-May-21 09:29N 58°20' E 011°23'1 2.8
2018-May-21 09:00N 58°19' E 011°21'713.2
2018-May-21 08:31N 58°14' E 011°12'714.2
2018-May-21 08:01N 58°07' E 011°14'714.5
2018-May-21 07:30N 58°00' E 011°16'714.3
2018-May-21 07:01N 57°53' E 011°18'714.3
2018-May-21 06:30N 57°46' E 011°21'714.8
2018-May-21 06:00N 57°39' E 011°23'714.8
2018-May-21 05:31N 57°32' E 011°25'714.8
2018-May-21 05:01N 57°24' E 011°29'714.6
2018-May-21 04:30N 57°17' E 011°33'714.4
2018-May-21 04:01N 57°11' E 011°38'814.7
2018-May-21 03:28N 57°03' E 011°43'714.7
2018-May-21 03:00N 56°57' E 011°47'714.4
2018-May-21 02:29N 56°50' E 011°51'714.0
2018-May-21 02:00N 56°43' E 011°55'713.6
2018-May-21 01:29N 56°36' E 011°58'2912.8
2018-May-20 23:16N 56°11' E 012°22'414.2
2018-May-20 23:01N 56°09' E 012°28'815.8
2018-May-20 22:30N 56°04' E 012°38'4 9.0
2018-May-20 22:00N 56°00' E 012°43'0 0.0
2018-May-20 11:50N 56°01' E 012°43'0 0.7
2018-May-20 11:31N 56°00' E 012°43'1 2.5
2018-May-20 11:00N 55°60' E 012°41'510.3
2018-May-20 10:30N 56°04' E 012°37'510.8
2018-May-20 10:00N 56°08' E 012°29'611.0
2018-May-20 09:30N 56°11' E 012°21'510.9
2018-May-20 09:00N 56°14' E 012°13'712.5
2018-May-20 08:29N 56°18' E 012°04'2912.3
2018-May-20 06:08N 56°46' E 011°52'612.0
2018-May-20 05:40N 56°51' E 011°48'2211.9
2018-May-20 03:49N 57°12' E 011°34'411.5
2018-May-20 03:29N 57°15' E 011°32'611.5
2018-May-20 03:00N 57°21' E 011°28'611.5
2018-May-20 02:30N 57°26' E 011°25'611.2
2018-May-20 02:00N 57°30' E 011°18'611.3
2018-May-20 01:30N 57°34' E 011°10'611.2
2018-May-20 01:00N 57°38' E 011°02'611.4
2018-May-20 00:30N 57°42' E 010°55'611.6
2018-May-20 00:00N 57°46' E 010°47'611.9
2018-May-19 23:30N 57°50' E 010°38'612.2
2018-May-19 23:00N 57°51' E 010°27'612.5
2018-May-19 22:30N 57°51' E 010°15'612.4
2018-May-19 21:59N 57°51' E 010°03'612.1
2018-May-19 21:30N 57°50' E 009°52'612.0
2018-May-19 20:59N 57°47' E 009°43'612.3
2018-May-19 20:30N 57°43' E 009°34'612.2
2018-May-19 20:00N 57°39' E 009°26'612.2
2018-May-19 19:30N 57°35' E 009°17'612.3
2018-May-19 19:00N 57°31' E 009°09'612.3
2018-May-19 18:30N 57°27' E 008°60'2112.4
2018-May-19 16:47N 57°13' E 008°30'612.2
2018-May-19 16:15N 57°08' E 008°23'312.1
2018-May-19 15:59N 57°05' E 008°19'611.9
2018-May-19 15:30N 57°01' E 008°12'611.9
2018-May-19 15:00N 56°56' E 008°05'711.5
2018-May-19 14:23N 56°50' E 007°60'511.7
2018-May-19 14:00N 56°46' E 007°57'7111.9
2018-May-19 08:05N 55°39' E 007°17'112.9
2018-May-19 08:00N 55°38' E 007°16'612.7
2018-May-19 07:29N 55°32' E 007°12'612.6
2018-May-19 07:00N 55°26' E 007°09'612.5
2018-May-19 06:30N 55°20' E 007°05'612.3
2018-May-19 06:00N 55°14' E 007°03'612.7
2018-May-19 05:30N 55°08' E 007°03'612.6
2018-May-19 05:00N 55°01' E 007°04'612.8
2018-May-19 04:30N 54°55' E 007°07'712.8
2018-May-19 04:00N 54°49' E 007°10'712.8
2018-May-19 03:28N 54°42' E 007°13'6810.3
2018-May-18 20:53N 53°44' E 008°14'512.4
2018-May-18 20:30N 53°42' E 008°21'713.6
2018-May-18 20:01N 53°37' E 008°29'612.9
2018-May-18 19:30N 53°31' E 008°33'612.5
2018-May-18 19:00N 53°25' E 008°30'5 9.6
2018-May-18 18:30N 53°21' E 008°30'0 0.0
2018-May-18 03:09N 53°21' E 008°30'0 0.1
2018-May-18 03:00N 53°21' E 008°30'1 2.3
2018-May-18 02:30N 53°22' E 008°30'612.0
2018-May-18 02:00N 53°28' E 008°29'510.3
2018-May-18 01:31N 53°32' E 008°34'612.7
2018-May-18 01:00N 53°37' E 008°28'714.0
2018-May-18 00:30N 53°42' E 008°19'106 8.4
2018-May-17 11:58N 53°33' E 005°22'4 9.0
2018-May-17 11:29N 53°31' E 005°15'4 9.2
2018-May-17 11:00N 53°30' E 005°08'5 9.4
2018-May-17 10:30N 53°28' E 005°01'5 9.1
2018-May-17 10:01N 53°27' E 004°53'5 9.8
2018-May-17 09:30N 53°25' E 004°46'15 7.9
2018-May-17 07:36N 53°12' E 004°33'1 8.1
2018-May-17 07:25N 53°10' E 004°32'4 8.8
2018-May-17 06:59N 53°07' E 004°29'5 8.7
2018-May-17 06:27N 53°03' E 004°24'4 8.7
2018-May-17 06:00N 52°60' E 004°21'5 8.7
2018-May-17 05:27N 52°55' E 004°18'6 9.0
2018-May-17 04:44N 52°50' E 004°13'6 9.3
2018-May-17 04:09N 52°45' E 004°08'9 9.4
2018-May-17 03:14N 52°38' E 004°01'3 9.6
2018-May-17 02:55N 52°35' E 003°59'4 9.2
2018-May-17 02:30N 52°32' E 003°55'4 8.3
2018-May-17 01:59N 52°28' E 003°54'4 7.9
2018-May-17 01:30N 52°24' E 003°53'4 7.4
2018-May-17 01:00N 52°20' E 003°52'4 7.3
2018-May-17 00:30N 52°17' E 003°52'4 7.3
2018-May-17 00:00N 52°13' E 003°53'3 6.9
2018-May-16 23:30N 52°10' E 003°54'3 6.9
2018-May-16 23:00N 52°06' E 003°55'4 7.2
2018-May-16 22:30N 52°03' E 003°58'5 9.1
2018-May-16 22:01N 51°60' E 004°03'4 8.3
2018-May-16 21:30N 51°57' E 004°09'3 6.6
2018-May-16 21:00N 51°55' E 004°13'1 0.8
2018-May-16 20:20N 51°55' E 004°13'0 0.0
2018-May-16 19:59N 51°55' E 004°13'0 0.0
2018-May-16 19:26N 51°55' E 004°13'0 0.0
2018-May-16 18:59N 51°55' E 004°13'0 0.0
2018-May-16 18:29N 51°55' E 004°13'0 0.0
2018-May-16 17:59N 51°55' E 004°13'0 0.0
2018-May-16 17:29N 51°55' E 004°13'0 0.0
2018-May-16 16:59N 51°55' E 004°13'0 0.0
2018-May-16 16:29N 51°55' E 004°13'0 0.0
2018-May-16 15:59N 51°55' E 004°13'0 0.0
2018-May-16 15:29N 51°55' E 004°13'0 0.0
2018-May-16 14:59N 51°55' E 004°13'0 0.0
2018-May-16 14:29N 51°55' E 004°13'0 0.0
2018-May-16 13:59N 51°55' E 004°13'0 0.0
2018-May-16 13:29N 51°55' E 004°13'0 0.0
2018-May-16 12:56N 51°55' E 004°13'0 0.0
2018-May-16 12:26N 51°55' E 004°13'0 0.0
2018-May-16 11:59N 51°55' E 004°13'0 0.0
2018-May-16 11:29N 51°55' E 004°13'0 0.0
2018-May-16 10:53N 51°55' E 004°13'0 0.0
2018-May-16 10:29N 51°55' E 004°13'0 0.0
2018-May-16 09:59N 51°55' E 004°13'0 0.0
2018-May-16 09:26N 51°55' E 004°13'0 0.0
2018-May-16 08:59N 51°55' E 004°13'0 0.0
2018-May-16 08:29N 51°55' E 004°13'0 0.0
2018-May-16 07:53N 51°55' E 004°13'0 0.0
2018-May-16 07:29N 51°55' E 004°13'0 0.0
2018-May-16 07:00N 51°55' E 004°13'1 1.5
2018-May-16 06:30N 51°55' E 004°12'  

Dump ship's entire track history